sensor_id;sensor_type;location;lat;lon;timestamp;temperature;humidity
22006;DHT22;11167;46.988;15.470;2023-04-25T00:01:06;13.10;73.40
22006;DHT22;11167;46.988;15.470;2023-04-25T00:03:07;13.10;73.40
22006;DHT22;11167;46.988;15.470;2023-04-25T00:05:09;13.10;73.40
22006;DHT22;11167;46.988;15.470;2023-04-25T00:07:11;13.10;73.40
22006;DHT22;11167;46.988;15.470;2023-04-25T00:09:13;13.10;73.40
22006;DHT22;11167;46.988;15.470;2023-04-25T00:11:14;13.10;73.50
22006;DHT22;11167;46.988;15.470;2023-04-25T00:13:15;13.10;73.40
22006;DHT22;11167;46.988;15.470;2023-04-25T00:15:18;13.10;72.80
22006;DHT22;11167;46.988;15.470;2023-04-25T00:17:19;13.00;73.40
22006;DHT22;11167;46.988;15.470;2023-04-25T00:19:20;13.00;73.50
22006;DHT22;11167;46.988;15.470;2023-04-25T00:21:22;13.00;73.40
22006;DHT22;11167;46.988;15.470;2023-04-25T00:23:25;13.00;73.50
22006;DHT22;11167;46.988;15.470;2023-04-25T00:25:27;13.00;73.50
22006;DHT22;11167;46.988;15.470;2023-04-25T00:27:28;13.00;73.50
22006;DHT22;11167;46.988;15.470;2023-04-25T00:29:30;13.00;73.50
22006;DHT22;11167;46.988;15.470;2023-04-25T00:31:32;13.00;73.50
22006;DHT22;11167;46.988;15.470;2023-04-25T00:33:33;13.00;73.50
22006;DHT22;11167;46.988;15.470;2023-04-25T00:35:35;13.00;73.50
22006;DHT22;11167;46.988;15.470;2023-04-25T00:37:37;13.00;73.50
22006;DHT22;11167;46.988;15.470;2023-04-25T00:39:38;13.00;73.50
22006;DHT22;11167;46.988;15.470;2023-04-25T00:41:40;13.00;73.50
22006;DHT22;11167;46.988;15.470;2023-04-25T00:43:41;13.00;73.50
22006;DHT22;11167;46.988;15.470;2023-04-25T00:45:43;13.00;73.50
22006;DHT22;11167;46.988;15.470;2023-04-25T00:47:44;12.90;73.60
22006;DHT22;11167;46.988;15.470;2023-04-25T00:49:46;12.90;73.60
22006;DHT22;11167;46.988;15.470;2023-04-25T00:51:48;12.90;73.60
22006;DHT22;11167;46.988;15.470;2023-04-25T00:53:50;12.90;73.60
22006;DHT22;11167;46.988;15.470;2023-04-25T00:55:51;12.90;73.60
22006;DHT22;11167;46.988;15.470;2023-04-25T00:57:53;12.90;73.60
22006;DHT22;11167;46.988;15.470;2023-04-25T00:59:54;12.90;73.60
22006;DHT22;11167;46.988;15.470;2023-04-25T01:01:55;12.90;73.60
22006;DHT22;11167;46.988;15.470;2023-04-25T01:03:58;12.90;73.60
22006;DHT22;11167;46.988;15.470;2023-04-25T01:06:00;12.90;73.70
22006;DHT22;11167;46.988;15.470;2023-04-25T01:08:02;12.90;73.70
22006;DHT22;11167;46.988;15.470;2023-04-25T01:10:04;12.90;73.70
22006;DHT22;11167;46.988;15.470;2023-04-25T01:12:05;12.80;73.70
22006;DHT22;11167;46.988;15.470;2023-04-25T01:14:07;12.80;73.70
22006;DHT22;11167;46.988;15.470;2023-04-25T01:16:08;12.80;73.80
22006;DHT22;11167;46.988;15.470;2023-04-25T01:18:10;12.80;73.70
22006;DHT22;11167;46.988;15.470;2023-04-25T01:20:13;12.80;73.70
22006;DHT22;11167;46.988;15.470;2023-04-25T01:22:15;12.80;73.80
22006;DHT22;11167;46.988;15.470;2023-04-25T01:24:18;12.80;73.80
22006;DHT22;11167;46.988;15.470;2023-04-25T01:26:19;12.80;73.80
22006;DHT22;11167;46.988;15.470;2023-04-25T01:28:22;12.80;73.80
22006;DHT22;11167;46.988;15.470;2023-04-25T01:30:28;12.80;73.80
22006;DHT22;11167;46.988;15.470;2023-04-25T01:32:28;12.80;73.80
22006;DHT22;11167;46.988;15.470;2023-04-25T01:34:29;12.80;73.80
22006;DHT22;11167;46.988;15.470;2023-04-25T01:36:30;12.70;73.80
22006;DHT22;11167;46.988;15.470;2023-04-25T01:38:32;12.80;73.90
22006;DHT22;11167;46.988;15.470;2023-04-25T01:40:34;12.70;73.80
22006;DHT22;11167;46.988;15.470;2023-04-25T01:42:37;12.70;73.90
22006;DHT22;11167;46.988;15.470;2023-04-25T01:44:39;12.70;73.80
22006;DHT22;11167;46.988;15.470;2023-04-25T01:46:40;12.70;73.90
22006;DHT22;11167;46.988;15.470;2023-04-25T01:48:41;12.70;74.00
22006;DHT22;11167;46.988;15.470;2023-04-25T01:50:43;12.70;74.10
22006;DHT22;11167;46.988;15.470;2023-04-25T01:52:44;12.70;74.00
22006;DHT22;11167;46.988;15.470;2023-04-25T01:54:46;12.70;74.00
22006;DHT22;11167;46.988;15.470;2023-04-25T01:56:51;12.70;74.00
22006;DHT22;11167;46.988;15.470;2023-04-25T01:58:53;12.70;74.00
22006;DHT22;11167;46.988;15.470;2023-04-25T02:00:56;12.60;73.90
22006;DHT22;11167;46.988;15.470;2023-04-25T02:02:58;12.60;73.90
22006;DHT22;11167;46.988;15.470;2023-04-25T02:04:59;12.60;74.00
22006;DHT22;11167;46.988;15.470;2023-04-25T02:07:01;12.60;73.90
22006;DHT22;11167;46.988;15.470;2023-04-25T02:09:02;12.60;73.90
22006;DHT22;11167;46.988;15.470;2023-04-25T02:11:04;12.60;74.00
22006;DHT22;11167;46.988;15.470;2023-04-25T02:13:05;12.60;74.00
22006;DHT22;11167;46.988;15.470;2023-04-25T02:15:07;12.60;74.00
22006;DHT22;11167;46.988;15.470;2023-04-25T02:17:08;12.60;74.00
22006;DHT22;11167;46.988;15.470;2023-04-25T02:19:10;12.50;74.00
22006;DHT22;11167;46.988;15.470;2023-04-25T02:21:11;12.50;74.00
22006;DHT22;11167;46.988;15.470;2023-04-25T02:23:12;12.50;74.00
22006;DHT22;11167;46.988;15.470;2023-04-25T02:25:16;12.50;74.00
22006;DHT22;11167;46.988;15.470;2023-04-25T02:27:17;12.50;74.00
22006;DHT22;11167;46.988;15.470;2023-04-25T02:29:18;12.50;74.00
22006;DHT22;11167;46.988;15.470;2023-04-25T02:31:19;12.50;74.10
22006;DHT22;11167;46.988;15.470;2023-04-25T02:33:20;12.40;74.00
22006;DHT22;11167;46.988;15.470;2023-04-25T02:35:21;12.40;74.10
22006;DHT22;11167;46.988;15.470;2023-04-25T02:37:22;12.40;74.00
22006;DHT22;11167;46.988;15.470;2023-04-25T02:39:23;12.40;74.00
22006;DHT22;11167;46.988;15.470;2023-04-25T02:41:26;12.40;74.00
22006;DHT22;11167;46.988;15.470;2023-04-25T02:43:27;12.40;74.10
22006;DHT22;11167;46.988;15.470;2023-04-25T02:45:29;12.40;74.00
22006;DHT22;11167;46.988;15.470;2023-04-25T02:47:30;12.40;74.10
22006;DHT22;11167;46.988;15.470;2023-04-25T02:49:31;12.30;74.00
22006;DHT22;11167;46.988;15.470;2023-04-25T02:51:32;12.30;74.10
22006;DHT22;11167;46.988;15.470;2023-04-25T02:53:34;12.30;74.00
22006;DHT22;11167;46.988;15.470;2023-04-25T02:55:35;12.30;74.10
22006;DHT22;11167;46.988;15.470;2023-04-25T02:57:36;12.30;74.10
22006;DHT22;11167;46.988;15.470;2023-04-25T02:59:37;12.30;74.10
22006;DHT22;11167;46.988;15.470;2023-04-25T03:01:38;12.30;74.10
22006;DHT22;11167;46.988;15.470;2023-04-25T03:03:39;12.20;74.00
22006;DHT22;11167;46.988;15.470;2023-04-25T03:05:40;12.20;74.10
22006;DHT22;11167;46.988;15.470;2023-04-25T03:07:41;12.20;74.10
22006;DHT22;11167;46.988;15.470;2023-04-25T03:09:44;12.20;74.10
22006;DHT22;11167;46.988;15.470;2023-04-25T03:11:45;12.20;74.10
22006;DHT22;11167;46.988;15.470;2023-04-25T03:13:47;12.20;74.10
22006;DHT22;11167;46.988;15.470;2023-04-25T03:15:48;12.20;74.20
22006;DHT22;11167;46.988;15.470;2023-04-25T03:17:49;12.20;74.20
22006;DHT22;11167;46.988;15.470;2023-04-25T03:19:50;12.10;74.20
22006;DHT22;11167;46.988;15.470;2023-04-25T03:21:51;12.10;73.40
22006;DHT22;11167;46.988;15.470;2023-04-25T03:23:52;12.10;75.00
22006;DHT22;11167;46.988;15.470;2023-04-25T03:25:53;12.10;74.20
22006;DHT22;11167;46.988;15.470;2023-04-25T03:27:55;12.10;74.30
22006;DHT22;11167;46.988;15.470;2023-04-25T03:29:56;12.10;74.30
22006;DHT22;11167;46.988;15.470;2023-04-25T03:31:57;12.10;74.30
22006;DHT22;11167;46.988;15.470;2023-04-25T03:33:58;12.00;74.30
22006;DHT22;11167;46.988;15.470;2023-04-25T03:35:59;12.00;74.30
22006;DHT22;11167;46.988;15.470;2023-04-25T03:38:01;12.00;74.30
22006;DHT22;11167;46.988;15.470;2023-04-25T03:40:02;12.00;74.30
22006;DHT22;11167;46.988;15.470;2023-04-25T03:42:03;12.00;74.40
22006;DHT22;11167;46.988;15.470;2023-04-25T03:44:04;12.00;74.40
22006;DHT22;11167;46.988;15.470;2023-04-25T03:46:05;12.00;75.10
22006;DHT22;11167;46.988;15.470;2023-04-25T03:48:06;12.00;74.50
22006;DHT22;11167;46.988;15.470;2023-04-25T03:50:08;12.00;74.50
22006;DHT22;11167;46.988;15.470;2023-04-25T03:52:10;11.90;74.50
22006;DHT22;11167;46.988;15.470;2023-04-25T03:54:11;12.00;74.50
22006;DHT22;11167;46.988;15.470;2023-04-25T03:56:12;11.90;74.50
22006;DHT22;11167;46.988;15.470;2023-04-25T03:58:14;11.90;74.50
22006;DHT22;11167;46.988;15.470;2023-04-25T04:00:15;11.90;74.50
22006;DHT22;11167;46.988;15.470;2023-04-25T04:02:17;11.90;74.60
22006;DHT22;11167;46.988;15.470;2023-04-25T04:04:19;11.90;74.70
22006;DHT22;11167;46.988;15.470;2023-04-25T04:06:20;11.90;75.40
22006;DHT22;11167;46.988;15.470;2023-04-25T04:08:22;11.90;74.70
22006;DHT22;11167;46.988;15.470;2023-04-25T04:10:23;11.90;74.70
22006;DHT22;11167;46.988;15.470;2023-04-25T04:12:24;11.80;74.60
22006;DHT22;11167;46.988;15.470;2023-04-25T04:14:25;11.80;74.60
22006;DHT22;11167;46.988;15.470;2023-04-25T04:16:26;11.80;74.70
22006;DHT22;11167;46.988;15.470;2023-04-25T04:18:27;11.80;74.70
22006;DHT22;11167;46.988;15.470;2023-04-25T04:20:29;11.80;74.70
22006;DHT22;11167;46.988;15.470;2023-04-25T04:22:33;11.80;74.70
22006;DHT22;11167;46.988;15.470;2023-04-25T04:24:35;11.80;74.70
22006;DHT22;11167;46.988;15.470;2023-04-25T04:26:36;11.80;74.70
22006;DHT22;11167;46.988;15.470;2023-04-25T04:28:39;11.80;74.70
22006;DHT22;11167;46.988;15.470;2023-04-25T04:30:41;11.80;74.80
22006;DHT22;11167;46.988;15.470;2023-04-25T04:32:43;11.70;74.70
22006;DHT22;11167;46.988;15.470;2023-04-25T04:34:44;11.70;74.80
22006;DHT22;11167;46.988;15.470;2023-04-25T04:36:46;11.70;74.70
22006;DHT22;11167;46.988;15.470;2023-04-25T04:38:48;11.70;74.70
22006;DHT22;11167;46.988;15.470;2023-04-25T04:40:49;11.70;74.70
22006;DHT22;11167;46.988;15.470;2023-04-25T04:42:51;11.70;74.70
22006;DHT22;11167;46.988;15.470;2023-04-25T04:44:54;11.70;74.80
22006;DHT22;11167;46.988;15.470;2023-04-25T04:46:55;11.70;74.90
22006;DHT22;11167;46.988;15.470;2023-04-25T04:48:57;11.70;74.90
22006;DHT22;11167;46.988;15.470;2023-04-25T04:50:59;11.70;74.90
22006;DHT22;11167;46.988;15.470;2023-04-25T04:53:01;11.70;74.90
22006;DHT22;11167;46.988;15.470;2023-04-25T04:55:04;11.70;74.90
22006;DHT22;11167;46.988;15.470;2023-04-25T04:57:07;11.60;74.90
22006;DHT22;11167;46.988;15.470;2023-04-25T04:59:08;11.70;75.00
22006;DHT22;11167;46.988;15.470;2023-04-25T05:01:10;11.60;74.90
22006;DHT22;11167;46.988;15.470;2023-04-25T05:03:11;11.60;74.90
22006;DHT22;11167;46.988;15.470;2023-04-25T05:05:13;11.60;74.90
22006;DHT22;11167;46.988;15.470;2023-04-25T05:07:14;11.60;74.90
22006;DHT22;11167;46.988;15.470;2023-04-25T05:09:15;11.60;74.90
22006;DHT22;11167;46.988;15.470;2023-04-25T05:11:16;11.60;74.90
22006;DHT22;11167;46.988;15.470;2023-04-25T05:13:17;11.60;74.90
22006;DHT22;11167;46.988;15.470;2023-04-25T05:15:18;11.60;75.80
22006;DHT22;11167;46.988;15.470;2023-04-25T05:17:19;11.60;75.00
22006;DHT22;11167;46.988;15.470;2023-04-25T05:19:22;11.50;74.90
22006;DHT22;11167;46.988;15.470;2023-04-25T05:21:24;11.60;74.30
22006;DHT22;11167;46.988;15.470;2023-04-25T05:23:26;11.50;75.00
22006;DHT22;11167;46.988;15.470;2023-04-25T05:25:28;11.50;75.00
22006;DHT22;11167;46.988;15.470;2023-04-25T05:27:30;11.50;75.00
22006;DHT22;11167;46.988;15.470;2023-04-25T05:29:31;11.50;75.00
22006;DHT22;11167;46.988;15.470;2023-04-25T05:31:32;11.50;75.00
22006;DHT22;11167;46.988;15.470;2023-04-25T05:33:33;11.50;75.00
22006;DHT22;11167;46.988;15.470;2023-04-25T05:35:34;11.50;75.00
22006;DHT22;11167;46.988;15.470;2023-04-25T05:37:35;11.50;75.00
22006;DHT22;11167;46.988;15.470;2023-04-25T05:39:36;11.50;75.00
22006;DHT22;11167;46.988;15.470;2023-04-25T05:41:37;11.50;75.20
22006;DHT22;11167;46.988;15.470;2023-04-25T05:43:38;11.50;75.10
22006;DHT22;11167;46.988;15.470;2023-04-25T05:45:39;11.50;75.10
22006;DHT22;11167;46.988;15.470;2023-04-25T05:47:41;11.50;75.20
22006;DHT22;11167;46.988;15.470;2023-04-25T05:49:42;11.50;75.20
22006;DHT22;11167;46.988;15.470;2023-04-25T05:51:43;11.50;75.20
22006;DHT22;11167;46.988;15.470;2023-04-25T05:53:44;11.50;75.20
22006;DHT22;11167;46.988;15.470;2023-04-25T05:55:46;11.40;75.20
22006;DHT22;11167;46.988;15.470;2023-04-25T05:57:47;11.40;75.20
22006;DHT22;11167;46.988;15.470;2023-04-25T05:59:48;11.40;75.20
22006;DHT22;11167;46.988;15.470;2023-04-25T06:01:50;11.40;75.20
22006;DHT22;11167;46.988;15.470;2023-04-25T06:03:52;11.40;75.20
22006;DHT22;11167;46.988;15.470;2023-04-25T06:05:53;11.40;75.20
22006;DHT22;11167;46.988;15.470;2023-04-25T06:07:54;11.40;75.20
22006;DHT22;11167;46.988;15.470;2023-04-25T06:09:55;11.40;75.20
22006;DHT22;11167;46.988;15.470;2023-04-25T06:11:56;11.40;75.30
22006;DHT22;11167;46.988;15.470;2023-04-25T06:13:57;11.40;75.30
22006;DHT22;11167;46.988;15.470;2023-04-25T06:15:58;11.40;75.40
22006;DHT22;11167;46.988;15.470;2023-04-25T06:18:00;11.40;75.40
22006;DHT22;11167;46.988;15.470;2023-04-25T06:20:01;11.40;75.40
22006;DHT22;11167;46.988;15.470;2023-04-25T06:22:02;11.40;75.50
22006;DHT22;11167;46.988;15.470;2023-04-25T06:24:05;11.40;75.40
22006;DHT22;11167;46.988;15.470;2023-04-25T06:26:07;11.40;75.40
22006;DHT22;11167;46.988;15.470;2023-04-25T06:28:07;11.40;75.40
22006;DHT22;11167;46.988;15.470;2023-04-25T06:30:09;11.40;75.40
22006;DHT22;11167;46.988;15.470;2023-04-25T06:32:13;11.30;75.40
22006;DHT22;11167;46.988;15.470;2023-04-25T06:34:15;11.30;75.40
22006;DHT22;11167;46.988;15.470;2023-04-25T06:36:17;11.30;75.50
22006;DHT22;11167;46.988;15.470;2023-04-25T06:38:18;11.30;75.40
22006;DHT22;11167;46.988;15.470;2023-04-25T06:40:19;11.30;75.40
22006;DHT22;11167;46.988;15.470;2023-04-25T06:42:20;11.30;75.40
22006;DHT22;11167;46.988;15.470;2023-04-25T06:44:21;11.30;76.30
22006;DHT22;11167;46.988;15.470;2023-04-25T06:46:24;11.30;75.40
22006;DHT22;11167;46.988;15.470;2023-04-25T06:48:25;11.30;75.40
22006;DHT22;11167;46.988;15.470;2023-04-25T06:50:26;11.30;75.40
22006;DHT22;11167;46.988;15.470;2023-04-25T06:52:27;11.30;75.40
22006;DHT22;11167;46.988;15.470;2023-04-25T06:54:28;11.30;75.40
22006;DHT22;11167;46.988;15.470;2023-04-25T06:56:30;11.30;75.80
22006;DHT22;11167;46.988;15.470;2023-04-25T06:58:31;11.30;75.40
22006;DHT22;11167;46.988;15.470;2023-04-25T07:00:33;11.30;75.40
22006;DHT22;11167;46.988;15.470;2023-04-25T07:02:34;11.30;75.50
22006;DHT22;11167;46.988;15.470;2023-04-25T07:04:35;11.30;75.40
22006;DHT22;11167;46.988;15.470;2023-04-25T07:06:36;11.30;75.40
22006;DHT22;11167;46.988;15.470;2023-04-25T07:08:39;11.30;75.40
22006;DHT22;11167;46.988;15.470;2023-04-25T07:10:41;11.30;75.40
22006;DHT22;11167;46.988;15.470;2023-04-25T07:12:42;11.30;75.40
22006;DHT22;11167;46.988;15.470;2023-04-25T07:14:43;11.30;75.50
22006;DHT22;11167;46.988;15.470;2023-04-25T07:16:44;11.30;75.80
22006;DHT22;11167;46.988;15.470;2023-04-25T07:18:45;11.30;75.70
22006;DHT22;11167;46.988;15.470;2023-04-25T07:20:46;11.30;75.40
22006;DHT22;11167;46.988;15.470;2023-04-25T07:22:47;11.30;76.20
22006;DHT22;11167;46.988;15.470;2023-04-25T07:24:48;11.30;76.20
22006;DHT22;11167;46.988;15.470;2023-04-25T07:26:49;11.30;75.40
22006;DHT22;11167;46.988;15.470;2023-04-25T07:28:50;11.30;75.40
22006;DHT22;11167;46.988;15.470;2023-04-25T07:30:52;11.30;75.40
22006;DHT22;11167;46.988;15.470;2023-04-25T07:32:53;11.30;75.40
22006;DHT22;11167;46.988;15.470;2023-04-25T07:34:54;11.30;75.40
22006;DHT22;11167;46.988;15.470;2023-04-25T07:36:55;11.30;75.30
22006;DHT22;11167;46.988;15.470;2023-04-25T07:38:56;11.30;75.40
22006;DHT22;11167;46.988;15.470;2023-04-25T07:40:57;11.20;75.30
22006;DHT22;11167;46.988;15.470;2023-04-25T07:42:58;11.20;75.30
22006;DHT22;11167;46.988;15.470;2023-04-25T07:45:01;11.30;75.40
22006;DHT22;11167;46.988;15.470;2023-04-25T07:47:02;11.30;75.40
22006;DHT22;11167;46.988;15.470;2023-04-25T07:49:03;11.30;75.40
22006;DHT22;11167;46.988;15.470;2023-04-25T07:51:05;11.30;75.40
22006;DHT22;11167;46.988;15.470;2023-04-25T07:53:06;11.30;75.40
22006;DHT22;11167;46.988;15.470;2023-04-25T07:55:07;11.30;75.40
22006;DHT22;11167;46.988;15.470;2023-04-25T07:57:08;11.30;75.30
22006;DHT22;11167;46.988;15.470;2023-04-25T07:59:10;11.30;75.40
22006;DHT22;11167;46.988;15.470;2023-04-25T08:01:11;11.30;75.30
22006;DHT22;11167;46.988;15.470;2023-04-25T08:03:12;11.30;75.40
22006;DHT22;11167;46.988;15.470;2023-04-25T08:05:13;11.30;75.40
22006;DHT22;11167;46.988;15.470;2023-04-25T08:07:15;11.30;75.40
22006;DHT22;11167;46.988;15.470;2023-04-25T08:09:16;11.30;75.40
22006;DHT22;11167;46.988;15.470;2023-04-25T08:11:17;11.30;75.40
22006;DHT22;11167;46.988;15.470;2023-04-25T08:13:19;11.30;75.40
22006;DHT22;11167;46.988;15.470;2023-04-25T08:15:20;11.40;75.40
22006;DHT22;11167;46.988;15.470;2023-04-25T08:17:21;11.30;75.40
22006;DHT22;11167;46.988;15.470;2023-04-25T08:19:22;11.40;75.40
22006;DHT22;11167;46.988;15.470;2023-04-25T08:21:23;11.40;75.40
22006;DHT22;11167;46.988;15.470;2023-04-25T08:23:24;11.40;75.40
22006;DHT22;11167;46.988;15.470;2023-04-25T08:25:26;11.40;75.40
22006;DHT22;11167;46.988;15.470;2023-04-25T08:27:27;11.40;75.40
22006;DHT22;11167;46.988;15.470;2023-04-25T08:29:28;11.40;75.40
22006;DHT22;11167;46.988;15.470;2023-04-25T08:31:29;11.40;75.40
22006;DHT22;11167;46.988;15.470;2023-04-25T08:33:30;11.40;75.30
22006;DHT22;11167;46.988;15.470;2023-04-25T08:35:33;11.50;75.40
22006;DHT22;11167;46.988;15.470;2023-04-25T08:37:34;11.50;75.40
22006;DHT22;11167;46.988;15.470;2023-04-25T08:39:36;11.50;75.30
22006;DHT22;11167;46.988;15.470;2023-04-25T08:41:37;11.50;75.20
22006;DHT22;11167;46.988;15.470;2023-04-25T08:43:42;11.50;75.20
22006;DHT22;11167;46.988;15.470;2023-04-25T08:45:44;11.50;75.20
22006;DHT22;11167;46.988;15.470;2023-04-25T08:47:45;11.50;75.30
22006;DHT22;11167;46.988;15.470;2023-04-25T08:49:49;11.60;75.20
22006;DHT22;11167;46.988;15.470;2023-04-25T08:51:53;11.60;75.30
22006;DHT22;11167;46.988;15.470;2023-04-25T08:54:09;11.60;75.20
22006;DHT22;11167;46.988;15.470;2023-04-25T08:56:03;11.60;75.20
22006;DHT22;11167;46.988;15.470;2023-04-25T08:58:05;11.60;75.10
22006;DHT22;11167;46.988;15.470;2023-04-25T09:00:08;11.70;75.10
22006;DHT22;11167;46.988;15.470;2023-04-25T09:02:10;11.70;75.00
22006;DHT22;11167;46.988;15.470;2023-04-25T09:04:13;11.70;75.00
22006;DHT22;11167;46.988;15.470;2023-04-25T09:06:14;11.70;75.00
22006;DHT22;11167;46.988;15.470;2023-04-25T09:08:17;11.70;74.90
22006;DHT22;11167;46.988;15.470;2023-04-25T09:10:18;11.70;74.90
22006;DHT22;11167;46.988;15.470;2023-04-25T09:12:20;11.80;75.00
22006;DHT22;11167;46.988;15.470;2023-04-25T09:14:22;11.80;75.00
22006;DHT22;11167;46.988;15.470;2023-04-25T09:16:23;11.80;75.00
22006;DHT22;11167;46.988;15.470;2023-04-25T09:18:28;11.90;75.00
22006;DHT22;11167;46.988;15.470;2023-04-25T09:20:29;11.90;75.00
22006;DHT22;11167;46.988;15.470;2023-04-25T09:22:31;11.90;74.70
22006;DHT22;11167;46.988;15.470;2023-04-25T09:24:44;11.90;75.00
22006;DHT22;11167;46.988;15.470;2023-04-25T09:26:44;11.90;74.90
22006;DHT22;11167;46.988;15.470;2023-04-25T09:28:46;12.00;74.90
22006;DHT22;11167;46.988;15.470;2023-04-25T09:30:48;12.00;74.90
22006;DHT22;11167;46.988;15.470;2023-04-25T09:32:49;12.10;74.90
22006;DHT22;11167;46.988;15.470;2023-04-25T09:34:56;12.00;74.80
22006;DHT22;11167;46.988;15.470;2023-04-25T09:36:56;12.10;74.90
22006;DHT22;11167;46.988;15.470;2023-04-25T09:38:59;12.00;74.70
22006;DHT22;11167;46.988;15.470;2023-04-25T09:41:01;12.10;74.80
22006;DHT22;11167;46.988;15.470;2023-04-25T09:43:08;12.10;74.80
22006;DHT22;11167;46.988;15.470;2023-04-25T09:45:07;12.20;74.80
22006;DHT22;11167;46.988;15.470;2023-04-25T09:47:12;12.20;74.80
22006;DHT22;11167;46.988;15.470;2023-04-25T09:49:14;12.20;74.80
22006;DHT22;11167;46.988;15.470;2023-04-25T09:51:15;12.20;74.90
22006;DHT22;11167;46.988;15.470;2023-04-25T09:53:16;12.20;74.80
22006;DHT22;11167;46.988;15.470;2023-04-25T09:55:18;12.30;74.80
22006;DHT22;11167;46.988;15.470;2023-04-25T09:57:21;12.30;74.80
22006;DHT22;11167;46.988;15.470;2023-04-25T09:59:22;12.40;74.80
22006;DHT22;11167;46.988;15.470;2023-04-25T10:01:25;12.40;74.80
22006;DHT22;11167;46.988;15.470;2023-04-25T10:03:32;12.40;74.80
22006;DHT22;11167;46.988;15.470;2023-04-25T10:05:35;12.50;74.80
22006;DHT22;11167;46.988;15.470;2023-04-25T10:07:37;12.50;74.80
22006;DHT22;11167;46.988;15.470;2023-04-25T10:09:40;12.50;74.60
22006;DHT22;11167;46.988;15.470;2023-04-25T10:11:42;12.50;74.60
22006;DHT22;11167;46.988;15.470;2023-04-25T10:13:44;12.60;74.80
22006;DHT22;11167;46.988;15.470;2023-04-25T10:15:47;12.60;74.70
22006;DHT22;11167;46.988;15.470;2023-04-25T10:17:49;12.60;74.80
22006;DHT22;11167;46.988;15.470;2023-04-25T10:19:51;12.70;74.80
22006;DHT22;11167;46.988;15.470;2023-04-25T10:22:07;12.70;74.80
22006;DHT22;11167;46.988;15.470;2023-04-25T10:24:09;12.70;74.80
22006;DHT22;11167;46.988;15.470;2023-04-25T10:26:10;12.80;74.80
22006;DHT22;11167;46.988;15.470;2023-04-25T10:28:13;12.80;74.80
22006;DHT22;11167;46.988;15.470;2023-04-25T10:30:14;12.80;74.80
22006;DHT22;11167;46.988;15.470;2023-04-25T10:32:16;12.80;74.80
22006;DHT22;11167;46.988;15.470;2023-04-25T10:34:17;12.90;74.90
22006;DHT22;11167;46.988;15.470;2023-04-25T10:36:21;12.90;74.80
22006;DHT22;11167;46.988;15.470;2023-04-25T10:38:23;13.00;74.70
22006;DHT22;11167;46.988;15.470;2023-04-25T10:40:24;13.00;74.70
22006;DHT22;11167;46.988;15.470;2023-04-25T10:42:25;13.00;74.80
22006;DHT22;11167;46.988;15.470;2023-04-25T10:44:28;13.00;74.70
22006;DHT22;11167;46.988;15.470;2023-04-25T10:46:30;13.10;74.70
22006;DHT22;11167;46.988;15.470;2023-04-25T10:48:35;13.10;74.50
22006;DHT22;11167;46.988;15.470;2023-04-25T10:50:39;13.20;74.70
22006;DHT22;11167;46.988;15.470;2023-04-25T10:52:40;13.20;74.70
22006;DHT22;11167;46.988;15.470;2023-04-25T10:54:47;13.20;74.70
22006;DHT22;11167;46.988;15.470;2023-04-25T10:56:49;13.30;74.70
22006;DHT22;11167;46.988;15.470;2023-04-25T10:58:51;13.30;74.70
22006;DHT22;11167;46.988;15.470;2023-04-25T11:00:53;13.40;74.70
22006;DHT22;11167;46.988;15.470;2023-04-25T11:02:59;13.40;74.70
22006;DHT22;11167;46.988;15.470;2023-04-25T11:05:00;13.40;74.70
22006;DHT22;11167;46.988;15.470;2023-04-25T11:07:23;13.50;74.70
22006;DHT22;11167;46.988;15.470;2023-04-25T11:09:24;13.50;74.70
22006;DHT22;11167;46.988;15.470;2023-04-25T11:11:25;13.60;74.70
22006;DHT22;11167;46.988;15.470;2023-04-25T11:13:29;13.60;74.60
22006;DHT22;11167;46.988;15.470;2023-04-25T11:15:31;13.60;74.70
22006;DHT22;11167;46.988;15.470;2023-04-25T11:17:33;13.70;73.50
22006;DHT22;11167;46.988;15.470;2023-04-25T11:19:35;13.70;74.60
22006;DHT22;11167;46.988;15.470;2023-04-25T11:21:37;13.70;74.70
22006;DHT22;11167;46.988;15.470;2023-04-25T11:23:38;13.80;74.80
22006;DHT22;11167;46.988;15.470;2023-04-25T11:25:39;13.80;74.70
22006;DHT22;11167;46.988;15.470;2023-04-25T11:27:56;13.80;74.70
22006;DHT22;11167;46.988;15.470;2023-04-25T11:29:58;13.90;74.70
22006;DHT22;11167;46.988;15.470;2023-04-25T11:31:59;13.90;74.70
22006;DHT22;11167;46.988;15.470;2023-04-25T11:34:01;13.90;74.70
22006;DHT22;11167;46.988;15.470;2023-04-25T11:36:03;14.00;74.80
22006;DHT22;11167;46.988;15.470;2023-04-25T11:38:06;14.00;74.70
22006;DHT22;11167;46.988;15.470;2023-04-25T11:40:08;14.10;74.70
22006;DHT22;11167;46.988;15.470;2023-04-25T11:42:10;14.10;74.60
22006;DHT22;11167;46.988;15.470;2023-04-25T11:44:17;14.20;74.60
22006;DHT22;11167;46.988;15.470;2023-04-25T11:46:18;14.20;74.60
22006;DHT22;11167;46.988;15.470;2023-04-25T11:48:20;14.30;74.60
22006;DHT22;11167;46.988;15.470;2023-04-25T11:50:22;14.30;74.50
22006;DHT22;11167;46.988;15.470;2023-04-25T11:52:23;14.40;74.60
22006;DHT22;11167;46.988;15.470;2023-04-25T11:54:25;14.40;74.50
22006;DHT22;11167;46.988;15.470;2023-04-25T11:56:27;14.40;74.60
22006;DHT22;11167;46.988;15.470;2023-04-25T11:58:29;14.50;74.60
22006;DHT22;11167;46.988;15.470;2023-04-25T12:00:30;14.50;74.60
22006;DHT22;11167;46.988;15.470;2023-04-25T12:02:36;14.60;74.60
22006;DHT22;11167;46.988;15.470;2023-04-25T12:04:40;14.60;74.60
22006;DHT22;11167;46.988;15.470;2023-04-25T12:06:44;14.60;74.40
22006;DHT22;11167;46.988;15.470;2023-04-25T12:09:04;14.70;74.00
22006;DHT22;11167;46.988;15.470;2023-04-25T12:11:05;14.70;74.10
22006;DHT22;11167;46.988;15.470;2023-04-25T12:13:19;14.70;74.10
22006;DHT22;11167;46.988;15.470;2023-04-25T12:15:25;14.80;74.10
22006;DHT22;11167;46.988;15.470;2023-04-25T12:17:28;14.80;74.20
22006;DHT22;11167;46.988;15.470;2023-04-25T12:19:37;14.80;74.30
22006;DHT22;11167;46.988;15.470;2023-04-25T12:21:42;14.80;74.30
22006;DHT22;11167;46.988;15.470;2023-04-25T12:23:43;14.90;74.30
22006;DHT22;11167;46.988;15.470;2023-04-25T12:25:45;14.90;74.30
22006;DHT22;11167;46.988;15.470;2023-04-25T12:27:47;14.90;74.30
22006;DHT22;11167;46.988;15.470;2023-04-25T12:29:54;15.00;74.30
22006;DHT22;11167;46.988;15.470;2023-04-25T12:31:57;15.00;74.20
22006;DHT22;11167;46.988;15.470;2023-04-25T12:33:58;14.90;74.30
22006;DHT22;11167;46.988;15.470;2023-04-25T12:36:01;15.00;74.30
22006;DHT22;11167;46.988;15.470;2023-04-25T12:38:04;15.00;74.30